createdAt,value
2019-03-24T00:00:30.245Z,168.15
2019-03-24T00:02:33.779Z,164.28
2019-03-24T00:04:37.320Z,157.12
2019-03-24T00:06:40.780Z,164.55
2019-03-24T00:08:44.327Z,179.57
2019-03-24T00:10:48.179Z,174.18
2019-03-24T00:12:51.809Z,169.35
2019-03-24T00:14:55.340Z,162.80
2019-03-24T00:16:59.020Z,179.68
2019-03-24T00:19:02.488Z,155.37
2019-03-24T00:21:06.370Z,154.45
2019-03-24T00:23:10.249Z,147.68
2019-03-24T00:25:13.889Z,159.57
2019-03-24T00:27:17.555Z,146.47
2019-03-24T00:29:21.197Z,161.70
2019-03-24T00:31:24.982Z,154.72
2019-03-24T00:33:28.881Z,181.63
2019-03-24T00:35:32.756Z,175.62
2019-03-24T00:37:36.307Z,164.10
2019-03-24T00:39:40.181Z,148.30
2019-03-24T00:41:44.597Z,151.35
2019-03-24T00:43:48.397Z,158.87
2019-03-24T00:45:51.929Z,159.18
2019-03-24T00:47:55.420Z,158.80
2019-03-24T00:49:58.929Z,152.27
2019-03-24T00:52:02.892Z,152.68
2019-03-24T00:54:06.524Z,148.43
2019-03-24T00:56:10.268Z,145.68
2019-03-24T00:58:13.907Z,146.05
2019-03-24T01:00:19.284Z,147.60
2019-03-24T01:02:22.927Z,139.62
2019-03-24T01:04:26.562Z,147.75
2019-03-24T01:06:30.144Z,136.32
2019-03-24T01:08:34.129Z,141.32
2019-03-24T01:10:37.932Z,150.55
2019-03-24T01:12:41.388Z,141.77
2019-03-24T01:14:44.961Z,147.90
2019-03-24T01:16:48.424Z,135.10
2019-03-24T01:18:51.988Z,133.55
2019-03-24T01:20:55.612Z,134.07
2019-03-24T01:22:59.416Z,136.65
2019-03-24T01:25:02.890Z,140.37
2019-03-24T01:27:06.423Z,140.90
2019-03-24T01:29:10.209Z,134.15
2019-03-24T01:31:13.758Z,137.85
2019-03-24T01:33:17.234Z,140.50
2019-03-24T01:35:21.617Z,137.77
2019-03-24T01:37:25.460Z,129.60
2019-03-24T01:39:29.072Z,127.82
2019-03-24T01:41:32.605Z,135.57
2019-03-24T01:43:36.422Z,123.50
2019-03-24T01:45:39.962Z,128.20
2019-03-24T01:47:43.568Z,116.08
2019-03-24T01:49:47.308Z,119.02
2019-03-24T01:51:50.779Z,114.67
2019-03-24T01:53:54.251Z,106.95
2019-03-24T01:55:57.817Z,101.97
2019-03-24T01:58:01.284Z,103.90
2019-03-24T02:00:09.551Z,99.30
2019-03-24T02:02:13.084Z,89.97
2019-03-24T02:04:17.480Z,93.78
2019-03-24T02:06:21.075Z,85.92
2019-03-24T02:08:24.588Z,86.60
2019-03-24T02:10:28.117Z,87.33
2019-03-24T02:12:31.854Z,79.82
2019-03-24T02:14:35.603Z,83.12
2019-03-24T02:16:39.136Z,79.30
2019-03-24T02:18:42.606Z,75.62
2019-03-24T02:20:46.141Z,67.45
2019-03-24T02:22:49.705Z,73.55
2019-03-24T02:24:53.209Z,64.77
2019-03-24T02:26:56.937Z,55.55
2019-03-24T02:29:00.784Z,66.70
2019-03-24T02:31:04.470Z,56.68
2019-03-24T02:33:08.108Z,63.38
2019-03-24T02:35:11.940Z,53.87
2019-03-24T02:37:15.399Z,57.48
2019-03-24T02:39:19.179Z,55.95
2019-03-24T02:41:22.725Z,55.67
2019-03-24T02:43:26.293Z,50.63
2019-03-24T02:45:29.789Z,53.40
2019-03-24T02:47:33.436Z,57.08
2019-03-24T02:49:37.165Z,55.45
2019-03-24T02:51:40.971Z,67.62
2019-03-24T02:53:45.472Z,57.35
2019-03-24T02:55:48.993Z,57.43
2019-03-24T02:57:52.452Z,62.73
2019-03-24T02:59:56.406Z,63.45
2019-03-24T03:02:00.037Z,72.47
2019-03-24T03:04:03.833Z,65.80
2019-03-24T03:06:07.580Z,52.70
2019-03-24T03:08:11.238Z,62.67
2019-03-24T03:10:15.079Z,59.60
2019-03-24T03:12:19.380Z,58.45
2019-03-24T03:14:22.842Z,65.28
2019-03-24T03:16:37.836Z,67.87
2019-03-24T03:18:32.753Z,59.00
2019-03-24T03:20:36.288Z,64.03
2019-03-24T03:22:39.827Z,58.38
2019-03-24T03:24:43.357Z,51.60
2019-03-24T03:26:46.902Z,59.15
2019-03-24T03:28:50.435Z,49.05
2019-03-24T03:30:54.933Z,57.85
2019-03-24T03:32:58.499Z,49.08
2019-03-24T03:35:02.071Z,56.30
2019-03-24T03:37:06.158Z,57.17
2019-03-24T03:39:09.808Z,53.80
2019-03-24T03:41:13.578Z,52.33
2019-03-24T03:43:17.486Z,54.08
2019-03-24T03:45:28.470Z,54.75
2019-03-24T03:47:32.063Z,52.73
2019-03-24T03:49:35.686Z,53.83
2019-03-24T03:51:39.416Z,67.20
2019-03-24T03:53:42.925Z,67.20
2019-03-24T03:55:46.461Z,64.80
2019-03-24T03:57:50.156Z,62.35
2019-03-24T03:59:53.698Z,67.22
2019-03-24T04:01:57.237Z,67.92
2019-03-24T04:04:00.764Z,72.53
2019-03-24T04:06:04.225Z,76.22
2019-03-24T04:08:07.940Z,82.50
2019-03-24T04:10:11.476Z,82.45
2019-03-24T04:12:15.307Z,86.28
2019-03-24T04:14:18.934Z,82.55
2019-03-24T04:16:22.766Z,94.05
2019-03-24T04:18:26.402Z,93.70
2019-03-24T04:20:30.293Z,91.90
2019-03-24T04:22:33.789Z,86.30
2019-03-24T04:24:37.385Z,93.87
2019-03-24T04:26:40.866Z,88.82
2019-03-24T04:28:44.807Z,80.10
2019-03-24T04:30:48.349Z,78.02
2019-03-24T04:32:51.881Z,96.20
2019-03-24T04:34:55.691Z,86.40
2019-03-24T04:36:59.159Z,82.97
2019-03-24T04:39:04.625Z,79.07
2019-03-24T04:41:08.212Z,76.00
2019-03-24T04:43:11.674Z,84.83
2019-03-24T04:45:15.207Z,87.05
2019-03-24T04:47:18.665Z,81.90
2019-03-24T04:49:22.123Z,95.67
2019-03-24T04:51:25.702Z,93.00
2019-03-24T04:53:29.506Z,92.05
2019-03-24T04:55:33.310Z,88.58
2019-03-24T04:57:36.972Z,91.78
2019-03-24T04:59:40.833Z,86.53
2019-03-24T05:01:44.292Z,94.62
2019-03-24T05:03:48.101Z,87.65
2019-03-24T05:05:52.000Z,85.83
2019-03-24T05:07:55.805Z,95.32
2019-03-24T05:09:59.644Z,91.25
2019-03-24T05:12:03.200Z,94.83
2019-03-24T05:14:06.705Z,94.62
2019-03-24T05:16:10.261Z,86.42
2019-03-24T05:18:13.801Z,85.15
2019-03-24T05:20:17.601Z,76.22
2019-03-24T05:22:21.060Z,80.80
2019-03-24T05:24:24.620Z,79.70
2019-03-24T05:26:28.161Z,76.33
2019-03-24T05:28:32.452Z,79.72
2019-03-24T05:30:36.053Z,84.10
2019-03-24T05:32:39.529Z,80.05
2019-03-24T05:34:43.995Z,81.57
2019-03-24T05:36:47.535Z,82.50
2019-03-24T05:38:51.421Z,77.80
2019-03-24T05:40:54.966Z,80.60
2019-03-24T05:42:58.496Z,72.70
2019-03-24T05:45:01.958Z,67.53
2019-03-24T05:47:05.838Z,71.60
2019-03-24T05:49:09.382Z,63.87
2019-03-24T05:51:13.200Z,69.58
2019-03-24T05:53:17.494Z,70.28
2019-03-24T05:55:21.029Z,73.70
2019-03-24T05:57:24.497Z,65.22
2019-03-24T05:59:28.025Z,66.30
2019-03-24T06:01:31.528Z,67.35
2019-03-24T06:03:35.254Z,63.42
2019-03-24T06:05:38.987Z,52.38
2019-03-24T06:07:42.489Z,54.70
2019-03-24T06:09:46.297Z,52.75
2019-03-24T06:11:49.759Z,58.17
2019-03-24T06:13:53.223Z,50.73
2019-03-24T06:15:56.684Z,50.78
2019-03-24T06:18:00.152Z,71.37
2019-03-24T06:20:05.864Z,53.98
2019-03-24T06:22:09.669Z,53.40
2019-03-24T06:24:13.529Z,59.55
2019-03-24T06:26:17.064Z,65.50
2019-03-24T06:28:20.824Z,58.40
2019-03-24T06:30:24.284Z,48.92
2019-03-24T06:32:27.997Z,47.78
2019-03-24T06:34:32.413Z,58.33
2019-03-24T06:36:36.245Z,65.40
2019-03-24T06:38:40.040Z,57.58
2019-03-24T06:40:43.500Z,55.63
2019-03-24T06:42:47.037Z,47.62
2019-03-24T06:44:50.503Z,61.35
2019-03-24T06:46:54.040Z,46.53
2019-03-24T06:48:57.780Z,51.15
2019-03-24T06:51:01.552Z,56.55
2019-03-24T06:53:05.433Z,46.75
2019-03-24T06:55:09.360Z,50.12
2019-03-24T06:57:13.140Z,50.28
2019-03-24T06:59:16.604Z,48.13
2019-03-24T07:01:20.432Z,48.70
2019-03-24T07:03:24.350Z,46.63
2019-03-24T07:05:28.245Z,57.73
2019-03-24T07:07:31.781Z,51.65
2019-03-24T07:09:35.558Z,49.05
2019-03-24T07:11:39.096Z,50.05
2019-03-24T07:13:42.709Z,49.77
2019-03-24T07:15:46.260Z,47.30
2019-03-24T07:17:49.877Z,61.00
2019-03-24T07:19:53.635Z,54.95
2019-03-24T07:21:57.243Z,57.50
2019-03-24T07:24:01.165Z,64.85
2019-03-24T07:26:04.869Z,47.60
2019-03-24T07:28:08.332Z,61.98
2019-03-24T07:30:12.336Z,53.08
2019-03-24T07:32:16.113Z,58.75
2019-03-24T07:34:19.856Z,52.27
2019-03-24T07:36:23.396Z,59.25
2019-03-24T07:38:27.069Z,52.70
2019-03-24T07:40:30.540Z,56.98
2019-03-24T07:42:34.843Z,47.27
2019-03-24T07:44:38.376Z,47.70
2019-03-24T07:46:42.349Z,48.10
2019-03-24T07:48:46.146Z,41.48
2019-03-24T07:50:50.971Z,43.98
2019-03-24T07:52:54.557Z,42.17
2019-03-24T07:54:58.373Z,43.42
2019-03-24T07:57:02.282Z,46.68
2019-03-24T07:59:05.876Z,47.95
2019-03-24T08:01:09.345Z,40.80
2019-03-24T08:03:12.864Z,42.55
2019-03-24T08:05:16.436Z,42.48
2019-03-24T08:07:19.936Z,44.35
2019-03-24T08:09:23.404Z,41.37
2019-03-24T08:11:26.868Z,39.33
2019-03-24T08:13:30.337Z,36.17
2019-03-24T08:15:33.876Z,37.78
2019-03-24T08:17:38.089Z,33.92
2019-03-24T08:19:41.630Z,39.73
2019-03-24T08:21:45.169Z,41.50
2019-03-24T08:23:49.047Z,35.58
2019-03-24T08:25:53.337Z,29.98
2019-03-24T08:27:56.795Z,32.55
2019-03-24T08:30:00.343Z,32.48
2019-03-24T08:32:03.909Z,35.20
2019-03-24T08:34:07.452Z,35.58
2019-03-24T08:36:11.020Z,39.42
2019-03-24T08:38:14.750Z,34.75
2019-03-24T08:40:18.406Z,35.90
2019-03-24T08:42:22.669Z,31.42
2019-03-24T08:44:26.560Z,29.12
2019-03-24T08:46:30.090Z,34.27
2019-03-24T08:48:40.979Z,35.45
2019-03-24T08:50:38.820Z,35.80
2019-03-24T08:52:42.366Z,34.88
2019-03-24T08:54:46.285Z,32.95
2019-03-24T08:56:49.788Z,28.17
2019-03-24T08:58:53.411Z,29.75
2019-03-24T09:00:57.188Z,28.02
2019-03-24T09:03:01.061Z,26.17
2019-03-24T09:05:06.462Z,28.62
2019-03-24T09:07:10.821Z,30.27
2019-03-24T09:09:14.649Z,27.93
2019-03-24T09:11:18.453Z,35.17
2019-03-24T09:13:22.764Z,28.87
2019-03-24T09:15:26.340Z,30.72
2019-03-24T09:17:30.228Z,35.88
2019-03-24T09:19:34.280Z,29.67
2019-03-24T09:21:38.085Z,30.92
2019-03-24T09:23:41.985Z,161.22
2019-03-24T09:25:45.447Z,34.48
2019-03-24T09:27:48.908Z,51.88
2019-03-24T09:29:53.265Z,27.87
2019-03-24T09:31:56.806Z,32.20
2019-03-24T09:34:00.372Z,34.50
2019-03-24T09:36:04.088Z,31.82
2019-03-24T09:38:08.065Z,37.80
2019-03-24T09:40:14.976Z,42.38
2019-03-24T09:42:18.709Z,33.80
2019-03-24T09:44:22.595Z,29.48
2019-03-24T09:46:28.697Z,35.30
2019-03-24T09:48:32.523Z,30.80
2019-03-24T09:50:36.384Z,30.48
2019-03-24T09:52:40.129Z,24.52
2019-03-24T09:54:44.005Z,24.40
2019-03-24T09:56:47.537Z,16.85
2019-03-24T09:58:51.355Z,24.05
2019-03-24T10:00:54.840Z,149.95
2019-03-24T10:02:58.728Z,826.88
2019-03-24T10:05:02.534Z,104.90
2019-03-24T10:07:06.546Z,26.27
2019-03-24T10:09:10.081Z,278.95
2019-03-24T10:11:13.948Z,58.95
2019-03-24T10:13:17.580Z,19.65
2019-03-24T10:15:21.363Z,20.37
2019-03-24T10:17:25.141Z,15.65
2019-03-24T10:19:28.681Z,19.27
2019-03-24T10:21:32.145Z,18.02
2019-03-24T10:23:35.653Z,21.27
2019-03-24T10:25:39.120Z,25.25
2019-03-24T10:27:42.658Z,18.20
2019-03-24T10:29:46.420Z,238.52
2019-03-24T10:31:50.324Z,22.07
2019-03-24T10:33:54.237Z,35.68
2019-03-24T10:35:58.088Z,17.12
2019-03-24T10:38:01.554Z,29.15
2019-03-24T10:40:06.988Z,13.18
2019-03-24T10:42:11.568Z,12.07
2019-03-24T10:44:15.396Z,74.12
2019-03-24T10:46:19.293Z,15.65
2019-03-24T10:48:33.190Z,19.70
2019-03-24T10:50:27.955Z,13.98
2019-03-24T10:52:32.013Z,15.35
2019-03-24T10:54:35.804Z,44.88
2019-03-24T10:56:39.621Z,11.40
2019-03-24T10:58:43.166Z,16.30
2019-03-24T11:00:46.865Z,11.28
2019-03-24T11:02:50.432Z,10.50
2019-03-24T11:04:53.964Z,12.60
2019-03-24T11:06:57.421Z,11.10
2019-03-24T11:09:01.224Z,11.65
2019-03-24T11:11:05.557Z,12.53
2019-03-24T11:13:10.137Z,16.23
2019-03-24T11:15:13.986Z,9.40
2019-03-24T11:17:17.454Z,14.65
2019-03-24T11:19:21.016Z,17.30
2019-03-24T11:21:24.753Z,13.98
2019-03-24T11:23:28.216Z,15.00
2019-03-24T11:25:34.286Z,13.00
2019-03-24T11:27:39.864Z,16.77
2019-03-24T11:29:43.861Z,12.23
2019-03-24T11:31:47.328Z,19.30
2019-03-24T11:33:50.878Z,17.67
2019-03-24T11:35:54.697Z,53.95
2019-03-24T11:37:58.452Z,19.52
2019-03-24T11:40:02.973Z,20.48
2019-03-24T11:42:06.534Z,13.83
2019-03-24T11:44:09.996Z,20.75
2019-03-24T11:46:14.040Z,15.00
2019-03-24T11:48:17.868Z,18.27
2019-03-24T11:50:21.408Z,15.40
2019-03-24T11:52:25.296Z,15.38
2019-03-24T11:54:29.625Z,15.03
2019-03-24T11:56:33.426Z,12.23
2019-03-24T11:58:37.806Z,12.23
2019-03-24T12:00:41.731Z,18.98
2019-03-24T12:02:45.520Z,14.93
2019-03-24T12:04:49.051Z,17.37
2019-03-24T12:06:52.985Z,21.25
2019-03-24T12:08:57.051Z,12.98
2019-03-24T12:11:00.587Z,12.53
2019-03-24T12:13:04.222Z,13.22
2019-03-24T12:15:08.246Z,19.98
2019-03-24T12:17:12.634Z,27.77
2019-03-24T12:19:17.581Z,17.40
2019-03-24T12:21:21.125Z,11.68
2019-03-24T12:23:24.869Z,12.33
2019-03-24T12:25:28.548Z,13.65
2019-03-24T12:27:32.368Z,16.75
2019-03-24T12:29:36.284Z,69.45
2019-03-24T12:31:39.917Z,13.95
2019-03-24T12:33:43.677Z,12.75
2019-03-24T12:35:47.398Z,14.18
2019-03-24T12:37:51.351Z,11.03
2019-03-24T12:39:55.184Z,23.40
2019-03-24T12:41:59.088Z,20.68
2019-03-24T12:44:03.197Z,12.98
2019-03-24T12:46:06.999Z,18.25
2019-03-24T12:48:10.841Z,86.15
2019-03-24T12:50:14.993Z,13.22
2019-03-24T12:52:18.528Z,11.93
2019-03-24T12:54:22.127Z,13.53
2019-03-24T12:56:25.960Z,13.22
2019-03-24T12:58:29.768Z,12.33
2019-03-24T13:00:36.109Z,13.43
2019-03-24T13:02:40.006Z,11.75
2019-03-24T13:04:43.540Z,15.88
2019-03-24T13:06:47.021Z,24.82
2019-03-24T13:08:50.475Z,11.43
2019-03-24T13:10:54.301Z,11.22
2019-03-24T13:12:57.983Z,10.88
2019-03-24T13:15:01.562Z,11.30
2019-03-24T13:17:05.323Z,12.30
2019-03-24T13:19:08.860Z,16.10
2019-03-24T13:21:12.580Z,11.95
2019-03-24T13:23:17.327Z,31.57
2019-03-24T13:25:21.025Z,15.35
2019-03-24T13:27:24.570Z,25.82
2019-03-24T13:29:28.392Z,25.48
2019-03-24T13:31:31.924Z,26.55
2019-03-24T13:33:35.390Z,17.60
2019-03-24T13:35:39.178Z,21.85
2019-03-24T13:37:42.929Z,17.90
2019-03-24T13:39:46.400Z,15.72
2019-03-24T13:41:49.864Z,34.08
2019-03-24T13:43:53.674Z,24.27
2019-03-24T13:45:57.452Z,16.45
2019-03-24T13:48:01.382Z,27.80
2019-03-24T13:50:07.144Z,12.82
2019-03-24T13:52:10.653Z,16.77
2019-03-24T13:54:14.158Z,31.62
2019-03-24T13:56:18.021Z,37.13
2019-03-24T13:58:21.485Z,14.58
2019-03-24T14:00:25.025Z,46.68
2019-03-24T14:02:29.045Z,36.85
2019-03-24T14:04:32.584Z,39.48
2019-03-24T14:06:36.445Z,31.73
2019-03-24T14:08:39.994Z,27.50
2019-03-24T14:10:44.001Z,22.00
2019-03-24T14:12:50.100Z,11.08
2019-03-24T14:14:54.223Z,15.58
2019-03-24T14:17:04.789Z,14.87
2019-03-24T14:19:08.765Z,18.42
2019-03-24T14:21:20.477Z,34.00
2019-03-24T14:23:34.551Z,17.23
2019-03-24T14:25:46.924Z,26.82
2019-03-24T14:30:08.156Z,11.12
2019-03-24T14:32:12.028Z,21.45
2019-03-24T14:34:15.569Z,39.20
2019-03-24T14:36:19.517Z,34.78
2019-03-24T14:38:23.321Z,10.23
2019-03-24T14:40:27.227Z,11.60
2019-03-24T14:42:36.673Z,7.40
2019-03-24T14:44:40.603Z,16.50
2019-03-24T14:46:44.574Z,15.93
2019-03-24T14:48:48.296Z,13.10
2019-03-24T14:50:55.053Z,12.63
2019-03-24T14:52:58.973Z,14.33
2019-03-24T14:55:02.473Z,11.15
2019-03-24T14:57:05.941Z,13.25
2019-03-24T14:59:09.740Z,14.75
2019-03-24T15:01:13.267Z,11.30
2019-03-24T15:03:17.041Z,10.08
2019-03-24T15:05:20.917Z,9.33
2019-03-24T15:07:24.750Z,10.78
2019-03-24T15:09:28.452Z,9.38
2019-03-24T15:11:31.987Z,11.68
2019-03-24T15:13:35.817Z,8.28
2019-03-24T15:15:39.279Z,13.85
2019-03-24T15:17:43.047Z,16.65
2019-03-24T15:19:46.843Z,14.30
2019-03-24T15:21:50.669Z,10.25
2019-03-24T15:23:54.170Z,10.43
2019-03-24T15:25:57.812Z,9.30
2019-03-24T15:28:01.517Z,8.70
2019-03-24T15:30:09.744Z,9.58
2019-03-24T15:32:13.324Z,29.05
2019-03-24T15:34:16.868Z,13.85
2019-03-24T15:36:20.328Z,9.73
2019-03-24T15:38:24.828Z,11.25
2019-03-24T15:40:28.364Z,12.75
2019-03-24T15:42:31.839Z,13.72
2019-03-24T15:44:35.849Z,16.10
2019-03-24T15:46:40.241Z,12.90
2019-03-24T15:48:44.069Z,18.50
2019-03-24T15:50:47.973Z,13.50
2019-03-24T15:52:51.707Z,16.82
2019-03-24T15:54:55.579Z,17.37
2019-03-24T15:56:59.108Z,19.92
2019-03-24T15:59:02.569Z,15.23
2019-03-24T16:01:06.225Z,18.37
2019-03-24T16:03:10.913Z,12.15
2019-03-24T16:05:14.442Z,20.55
2019-03-24T16:07:17.916Z,11.97
2019-03-24T16:09:21.448Z,14.93
2019-03-24T16:11:25.312Z,29.40
2019-03-24T16:13:30.345Z,45.00
2019-03-24T16:15:34.909Z,20.00
2019-03-24T16:17:38.426Z,13.32
2019-03-24T16:19:44.795Z,12.82
2019-03-24T16:21:48.803Z,31.73
2019-03-24T16:23:52.343Z,27.95
2019-03-24T16:25:55.932Z,24.60
2019-03-24T16:28:00.308Z,16.42
2019-03-24T16:30:06.058Z,24.10
2019-03-24T16:32:10.369Z,55.88
2019-03-24T16:34:13.891Z,48.85
2019-03-24T16:36:17.431Z,40.15
2019-03-24T16:38:21.041Z,36.28
2019-03-24T16:40:24.692Z,25.50
2019-03-24T16:42:28.465Z,28.57
2019-03-24T16:44:32.577Z,58.95
2019-03-24T16:46:36.377Z,43.90
2019-03-24T16:48:39.918Z,41.53
2019-03-24T16:50:43.573Z,23.38
2019-03-24T16:52:47.417Z,46.00
2019-03-24T16:54:50.961Z,50.28
2019-03-24T16:56:54.496Z,55.67
2019-03-24T16:58:57.964Z,85.75
2019-03-24T17:01:01.889Z,174.25
2019-03-24T17:03:05.352Z,109.12
2019-03-24T17:05:10.045Z,165.32
2019-03-24T17:07:13.584Z,116.67
2019-03-24T17:09:17.481Z,98.05
2019-03-24T17:11:21.976Z,110.92
2019-03-24T17:13:26.860Z,108.05
2019-03-24T17:15:30.738Z,108.52
2019-03-24T17:17:34.272Z,127.02
2019-03-24T17:19:38.620Z,262.77
2019-03-24T17:21:49.839Z,292.00
2019-03-24T17:23:49.013Z,85.90
2019-03-24T17:25:53.353Z,57.98
2019-03-24T17:27:57.107Z,48.85
2019-03-24T17:30:00.684Z,41.60
2019-03-24T17:32:04.640Z,33.65
2019-03-24T17:34:08.269Z,35.15
2019-03-24T17:36:11.837Z,36.65
2019-03-24T17:38:15.638Z,81.35
2019-03-24T17:40:19.638Z,73.72
2019-03-24T17:42:23.176Z,73.87
2019-03-24T17:44:27.524Z,72.30
2019-03-24T17:46:31.169Z,104.40
2019-03-24T17:48:34.636Z,138.47
2019-03-24T17:50:38.115Z,142.57
2019-03-24T17:52:42.528Z,146.32
2019-03-24T17:54:46.002Z,264.55
2019-03-24T17:56:49.583Z,550.15
2019-03-24T17:58:53.349Z,114.30
2019-03-24T18:00:57.960Z,81.08
2019-03-24T18:03:01.425Z,141.95
2019-03-24T18:05:06.014Z,46.20
2019-03-24T18:07:09.474Z,44.65
2019-03-24T18:09:13.008Z,60.35
2019-03-24T18:11:17.269Z,73.28
2019-03-24T18:13:21.603Z,59.70
2019-03-24T18:15:25.272Z,62.90
2019-03-24T18:17:29.040Z,128.12
2019-03-24T18:19:32.846Z,114.75
2019-03-24T18:21:36.391Z,153.90
2019-03-24T18:23:41.387Z,161.37
2019-03-24T18:25:45.238Z,85.20
2019-03-24T18:27:49.629Z,92.37
2019-03-24T18:29:53.451Z,108.27
2019-03-24T18:31:56.996Z,389.17
2019-03-24T18:34:00.525Z,534.22
2019-03-24T18:36:04.351Z,578.42
2019-03-24T18:38:08.684Z,276.05
2019-03-24T18:40:14.696Z,166.15
2019-03-24T18:42:20.197Z,228.60
2019-03-24T18:44:23.726Z,408.87
2019-03-24T18:46:27.566Z,260.52
2019-03-24T18:48:31.502Z,212.63
2019-03-24T18:50:35.045Z,162.43
2019-03-24T18:52:38.650Z,109.95
2019-03-24T18:54:42.193Z,104.12
2019-03-24T18:56:45.736Z,103.42
2019-03-24T18:58:49.552Z,114.90
2019-03-24T19:00:55.501Z,212.02
2019-03-24T19:02:59.004Z,343.55
2019-03-24T19:05:03.476Z,431.07
2019-03-24T19:07:07.092Z,518.92
2019-03-24T19:09:10.896Z,489.63
2019-03-24T19:11:15.345Z,334.60
2019-03-24T19:13:19.268Z,255.45
2019-03-24T19:15:23.107Z,238.37
2019-03-24T19:17:26.653Z,236.12
2019-03-24T19:19:30.136Z,227.75
2019-03-24T19:21:34.736Z,236.22
2019-03-24T19:23:38.202Z,276.40
2019-03-24T19:25:41.786Z,407.23
2019-03-24T19:27:45.662Z,378.73
2019-03-24T19:29:49.564Z,370.25
2019-03-24T19:31:53.149Z,373.38
2019-03-24T19:33:56.932Z,391.50
2019-03-24T19:36:01.548Z,380.25
2019-03-24T19:38:05.152Z,301.73
2019-03-24T19:40:26.102Z,258.15
2019-03-24T19:42:29.953Z,215.60
2019-03-24T19:44:33.808Z,175.07
2019-03-24T19:46:37.436Z,152.93
2019-03-24T19:48:41.529Z,247.58
2019-03-24T19:50:45.169Z,242.50
2019-03-24T19:52:48.704Z,206.07
2019-03-24T19:54:52.496Z,194.22
2019-03-24T19:56:56.028Z,205.32
2019-03-24T19:58:59.750Z,212.57
2019-03-24T20:01:03.285Z,145.00
2019-03-24T20:03:06.832Z,85.35
2019-03-24T20:05:11.371Z,113.00
2019-03-24T20:07:14.938Z,133.55
2019-03-24T20:09:18.697Z,171.28
2019-03-24T20:11:22.164Z,94.28
2019-03-24T20:13:25.962Z,106.78
2019-03-24T20:15:29.900Z,201.37
2019-03-24T20:17:33.375Z,140.85
2019-03-24T20:19:39.988Z,85.92
2019-03-24T20:21:44.431Z,67.10
2019-03-24T20:23:48.212Z,100.38
2019-03-24T20:25:53.263Z,232.92
2019-03-24T20:27:58.072Z,343.12
2019-03-24T20:30:01.621Z,180.87
2019-03-24T20:32:05.551Z,164.77
2019-03-24T20:34:09.452Z,90.67
2019-03-24T20:36:13.873Z,111.65
2019-03-24T20:38:18.285Z,207.67
2019-03-24T20:40:22.916Z,267.55
2019-03-24T20:42:27.016Z,245.95
2019-03-24T20:44:30.947Z,305.90
2019-03-24T20:46:34.488Z,266.25
2019-03-24T20:48:38.734Z,216.00
2019-03-24T20:50:42.300Z,236.18
2019-03-24T20:52:45.865Z,272.42
2019-03-24T20:54:49.431Z,574.05
2019-03-24T20:56:52.911Z,188.03
2019-03-24T20:58:57.437Z,203.62
2019-03-24T21:01:00.911Z,219.15
2019-03-24T21:03:05.688Z,249.58
2019-03-24T21:05:11.066Z,172.07
2019-03-24T21:07:15.177Z,252.28
2019-03-24T21:09:18.723Z,345.60
2019-03-24T21:11:22.269Z,261.60
2019-03-24T21:13:25.816Z,388.30
2019-03-24T21:15:29.391Z,272.27
2019-03-24T21:17:32.862Z,229.15
2019-03-24T21:19:36.520Z,362.98
2019-03-24T21:21:40.069Z,159.25
2019-03-24T21:23:43.601Z,201.15
2019-03-24T21:25:47.379Z,146.37
2019-03-24T21:27:51.017Z,91.60
2019-03-24T21:29:54.486Z,93.30
2019-03-24T21:31:58.272Z,103.78
2019-03-24T21:34:01.751Z,114.08
2019-03-24T21:36:05.392Z,109.50
2019-03-24T21:38:09.245Z,118.08
2019-03-24T21:40:12.969Z,74.62
2019-03-24T21:42:16.771Z,69.00
2019-03-24T21:44:20.425Z,59.30
2019-03-24T21:46:24.213Z,58.50
2019-03-24T21:48:27.761Z,58.78
2019-03-24T21:50:31.333Z,64.65
2019-03-24T21:52:35.765Z,49.08
2019-03-24T21:54:39.296Z,56.33
2019-03-24T21:56:43.040Z,60.35
2019-03-24T21:58:46.832Z,65.72
2019-03-24T22:00:50.376Z,56.95
2019-03-24T22:02:54.859Z,69.20
2019-03-24T22:04:58.704Z,87.92
2019-03-24T22:07:02.344Z,92.60
2019-03-24T22:09:07.452Z,118.60
2019-03-24T22:11:10.985Z,111.75
2019-03-24T22:13:14.806Z,188.90
2019-03-24T22:15:18.376Z,572.98
2019-03-24T22:17:22.028Z,449.98
2019-03-24T22:19:25.834Z,300.82
2019-03-24T22:21:29.817Z,216.48
2019-03-24T22:23:33.661Z,200.80
2019-03-24T22:25:37.252Z,157.52
2019-03-24T22:27:40.773Z,120.37
2019-03-24T22:29:44.661Z,121.70
2019-03-24T22:31:48.128Z,127.78
2019-03-24T22:33:51.789Z,113.77
2019-03-24T22:35:55.332Z,178.10
2019-03-24T22:37:59.104Z,300.95
2019-03-24T22:40:02.712Z,170.38
2019-03-24T22:42:06.169Z,150.55
2019-03-24T22:44:09.970Z,137.37
2019-03-24T22:46:13.441Z,101.60
2019-03-24T22:48:17.009Z,111.12
2019-03-24T22:50:20.538Z,105.97
2019-03-24T22:52:24.006Z,87.53
2019-03-24T22:54:28.705Z,70.22
2019-03-24T22:56:32.534Z,72.95
2019-03-24T22:58:36.335Z,64.45
2019-03-24T23:00:53.477Z,72.78
2019-03-24T23:02:57.247Z,89.95
2019-03-24T23:05:00.704Z,72.90
2019-03-24T23:07:04.274Z,57.48
2019-03-24T23:09:09.096Z,58.48
2019-03-24T23:11:12.977Z,66.00
2019-03-24T23:13:16.700Z,67.08
2019-03-24T23:15:20.168Z,111.83
2019-03-24T23:17:23.845Z,139.32
2019-03-24T23:19:27.388Z,278.62
2019-03-24T23:21:30.859Z,111.60
2019-03-24T23:23:34.437Z,115.47
2019-03-24T23:25:38.040Z,98.30
2019-03-24T23:27:41.605Z,76.47
2019-03-24T23:29:45.068Z,70.57
2019-03-24T23:31:48.817Z,52.38
2019-03-24T23:33:52.278Z,64.10
2019-03-24T23:35:56.100Z,71.90
2019-03-24T23:37:59.685Z,64.97
2019-03-24T23:40:04.040Z,56.88
2019-03-24T23:42:07.564Z,55.43
2019-03-24T23:44:11.104Z,50.40
2019-03-24T23:46:14.568Z,57.98
2019-03-24T23:48:18.032Z,57.20
2019-03-24T23:50:22.244Z,65.92
2019-03-24T23:52:25.772Z,78.95
2019-03-24T23:54:29.550Z,76.92
2019-03-24T23:56:33.122Z,58.65
2019-03-24T23:58:41.193Z,57.58
